Time;durP1;ratioP1;P1;durP2;ratioP2;P2;SDS_P1;SDS_P2;PMS_P1;PMS_P2;Temp;Humidity;BMP_temperature;BMP_pressure;BME280_temperature;BME280_humidity;BME280_pressure;Samples;Min_cycle;Max_cycle;Signal;HPM_P1;HPM_P2
2022/01/21 00:01:59;;;;;;;1.75;1.30;;;-1.90;99.90;;;;;;7387599;19;20364;-80
2022/01/21 00:04:26;;;;;;;2.30;1.25;;;-1.90;99.90;;;;;;7389552;19;20301;-80
2022/01/21 00:06:51;;;;;;;1.48;1.38;;;-1.90;99.90;;;;;;7388717;19;20344;-85
2022/01/21 00:09:17;;;;;;;1.88;1.23;;;-1.90;99.90;;;;;;7388025;19;20300;-80
2022/01/21 00:11:43;;;;;;;1.33;1.23;;;-2.00;99.90;;;;;;7387571;19;21138;-79
2022/01/21 00:14:10;;;;;;;1.67;1.07;;;-2.00;99.90;;;;;;7385116;19;20332;-78
2022/01/21 00:16:38;;;;;;;1.08;1.08;;;-2.10;99.90;;;;;;7385515;19;20317;-78
2022/01/21 00:19:08;;;;;;;0.98;0.90;;;-2.00;99.90;;;;;;7387077;19;20289;-78
2022/01/21 00:32:33;;;;;;;2.00;1.17;;;-2.00;99.90;;;;;;7384981;19;20416;-88
2022/01/21 00:34:59;;;;;;;3.20;1.35;;;-2.20;99.90;;;;;;7384520;19;20325;-86
2022/01/21 00:37:24;;;;;;;1.95;1.33;;;-2.10;99.90;;;;;;7388460;19;20667;-79
2022/01/21 00:39:57;;;;;;;1.20;1.10;;;-2.10;99.90;;;;;;7383424;19;20317;-79
2022/01/21 00:44:53;;;;;;;1.08;0.98;;;-2.00;99.90;;;;;;7382846;19;20319;-83
2022/01/21 00:47:20;;;;;;;1.45;1.02;;;-2.10;99.90;;;;;;7386091;19;20337;-84
2022/01/21 00:49:46;;;;;;;5.18;1.38;;;-2.00;99.90;;;;;;7384807;19;20736;-79
2022/01/21 00:52:11;;;;;;;4.05;1.17;;;-2.00;99.90;;;;;;7384505;19;20293;-77
2022/01/21 00:54:37;;;;;;;1.23;1.08;;;-1.90;99.90;;;;;;7385685;19;20329;-86
2022/01/21 00:57:04;;;;;;;1.03;0.97;;;-2.00;99.90;;;;;;7386625;19;20300;-79
2022/01/21 00:59:29;;;;;;;1.23;1.13;;;-1.90;99.90;;;;;;7383029;19;20321;-78
2022/01/21 01:01:55;;;;;;;0.90;0.90;;;-1.90;99.90;;;;;;7384638;19;20313;-80
2022/01/21 01:04:21;;;;;;;1.17;0.93;;;-1.90;99.90;;;;;;7381285;19;20786;-82
2022/01/21 01:06:47;;;;;;;1.27;1.17;;;-1.90;99.90;;;;;;7381965;19;20313;-78
2022/01/21 01:09:13;;;;;;;0.98;0.98;;;-1.90;99.90;;;;;;7381577;19;20349;-78
2022/01/21 01:27:59;;;;;;;1.17;1.08;;;-1.70;99.90;;;;;;7287896;19;2004609;-78
2022/01/21 01:30:26;;;;;;;7.72;1.48;;;-1.70;99.90;;;;;;7394363;19;20810;-80
2022/01/21 01:32:54;;;;;;;2.90;1.40;;;-1.70;99.90;;;;;;7392429;19;20324;-78
2022/01/21 01:35:22;;;;;;;2.50;1.27;;;-1.60;99.90;;;;;;7390663;19;21110;-82
2022/01/21 01:51:48;;;;;;;2.05;1.20;;;-1.50;99.90;;;;;;7389344;19;20320;-79
2022/01/21 01:54:14;;;;;;;1.45;1.35;;;-1.50;99.90;;;;;;7384750;19;20312;-77
2022/01/21 01:56:43;;;;;;;1.37;1.10;;;-1.50;99.90;;;;;;7387595;19;20329;-79
2022/01/21 01:59:09;;;;;;;1.25;1.15;;;-1.50;99.90;;;;;;7388791;19;20396;-79
2022/01/21 02:01:35;;;;;;;1.10;1.00;;;-1.50;99.90;;;;;;7387718;19;20375;-79
2022/01/21 02:04:01;;;;;;;1.80;1.52;;;-1.40;99.90;;;;;;7387407;19;20335;-76
2022/01/21 02:06:26;;;;;;;4.05;1.20;;;-1.40;99.90;;;;;;7389381;19;20323;-77
2022/01/21 02:08:52;;;;;;;1.70;1.10;;;-1.40;99.90;;;;;;7388678;19;20375;-76
2022/01/21 02:11:18;;;;;;;3.22;1.13;;;-1.40;99.90;;;;;;7387964;19;20834;-77
2022/01/21 02:13:48;;;;;;;1.65;1.25;;;-1.40;99.90;;;;;;7384876;19;20601;-79
2022/01/21 02:21:47;;;;;;;1.63;1.10;;;-1.30;99.90;;;;;;7389129;19;20674;-77
2022/01/21 02:24:23;;;;;;;1.80;1.20;;;-1.30;99.90;;;;;;7384295;19;20348;-79
2022/01/21 02:26:50;;;;;;;1.20;1.15;;;-1.30;99.90;;;;;;7386556;19;20321;-77
2022/01/21 02:29:26;;;;;;;1.85;1.30;;;-1.20;99.90;;;;;;7388249;19;20304;-77
2022/01/21 02:31:53;;;;;;;2.00;1.00;;;-1.30;99.90;;;;;;7386757;19;20300;-81
2022/01/21 02:34:18;;;;;;;3.60;1.37;;;-1.30;99.90;;;;;;7383814;19;20344;-79
2022/01/21 02:36:44;;;;;;;3.13;1.30;;;-1.40;99.90;;;;;;7388640;19;20316;-77
2022/01/21 02:39:10;;;;;;;2.25;1.20;;;-1.40;99.90;;;;;;7387099;19;20325;-78
2022/01/21 02:41:36;;;;;;;1.10;1.00;;;-1.40;99.90;;;;;;7389847;19;20324;-83
2022/01/21 02:44:02;;;;;;;2.65;1.20;;;-1.40;99.90;;;;;;7388372;19;20357;-79
2022/01/21 02:46:28;;;;;;;1.52;1.40;;;-1.50;99.90;;;;;;7389234;19;20727;-78
2022/01/21 02:48:55;;;;;;;1.27;1.17;;;-1.50;99.90;;;;;;7386652;19;20316;-77
2022/01/21 02:51:21;;;;;;;2.60;1.53;;;-1.60;99.90;;;;;;7387953;19;20324;-77
2022/01/21 02:56:13;;;;;;;2.70;1.40;;;-1.60;99.90;;;;;;7376840;19;20322;-77
2022/01/21 02:58:39;;;;;;;2.15;1.20;;;-1.70;99.90;;;;;;7386775;19;20919;-79
2022/01/21 03:01:06;;;;;;;1.67;1.35;;;-1.60;99.90;;;;;;7383788;19;20416;-80
2022/01/21 03:03:31;;;;;;;1.83;1.42;;;-1.50;99.90;;;;;;7388510;19;20313;-78
2022/01/21 03:06:00;;;;;;;1.45;1.35;;;-1.80;99.90;;;;;;7387519;19;20348;-81
2022/01/21 03:08:25;;;;;;;4.47;1.42;;;-1.90;99.90;;;;;;7383844;19;20380;-78
2022/01/21 03:10:51;;;;;;;1.77;1.60;;;-1.90;99.90;;;;;;7387579;19;20341;-83
2022/01/21 03:13:18;;;;;;;1.05;1.05;;;-1.80;99.90;;;;;;7388185;19;20437;-81
2022/01/21 03:15:44;;;;;;;3.92;1.60;;;-1.90;99.90;;;;;;7391292;19;20305;-88
2022/01/21 03:18:18;;;;;;;1.60;1.50;;;-2.00;99.90;;;;;;7349345;19;20431;-78
2022/01/21 03:20:53;;;;;;;2.03;1.27;;;-2.10;99.90;;;;;;7219486;19;2004348;-77
2022/01/21 03:23:23;;;;;;;1.73;1.37;;;-2.10;99.90;;;;;;7361861;19;20701;-78
2022/01/21 03:25:53;;;;;;;1.60;1.30;;;-2.10;99.90;;;;;;7386659;19;20309;-82
2022/01/21 03:28:36;;;;;;;2.45;1.33;;;-2.10;99.90;;;;;;7284164;19;2004854;-77
2022/01/21 03:31:02;;;;;;;2.15;1.50;;;-2.10;99.90;;;;;;7386343;19;20415;-77
2022/01/21 03:33:29;;;;;;;1.63;1.10;;;-2.20;99.90;;;;;;7386356;19;20304;-82
2022/01/21 03:35:55;;;;;;;1.83;1.33;;;-2.20;99.90;;;;;;7387368;19;20366;-78
2022/01/21 03:38:24;;;;;;;3.60;1.40;;;-2.10;99.90;;;;;;7385536;19;20309;-74
2022/01/21 03:40:50;;;;;;;1.02;1.02;;;-2.20;99.90;;;;;;7386546;19;20304;-81
2022/01/21 03:43:16;;;;;;;1.90;1.45;;;-2.20;99.90;;;;;;7385939;19;20333;-79
2022/01/21 03:45:42;;;;;;;2.90;1.40;;;-2.20;99.90;;;;;;7386862;19;20319;-76
2022/01/21 03:48:07;;;;;;;2.17;1.50;;;-2.20;99.90;;;;;;7386921;19;20334;-80
2022/01/21 03:50:33;;;;;;;1.30;1.10;;;-2.10;99.90;;;;;;7384647;19;20736;-80
2022/01/21 03:53:00;;;;;;;1.60;1.00;;;-2.30;99.90;;;;;;7383160;19;20358;-74
2022/01/21 03:55:27;;;;;;;3.20;1.23;;;-2.20;99.90;;;;;;7386083;19;20313;-76
2022/01/21 03:57:53;;;;;;;1.85;1.25;;;-2.30;99.90;;;;;;7367408;19;20348;-78
2022/01/21 04:00:22;;;;;;;1.30;1.20;;;-2.30;99.90;;;;;;7386000;19;20323;-80
2022/01/21 04:02:48;;;;;;;1.63;1.25;;;-2.40;99.90;;;;;;7385570;19;20301;-80
2022/01/21 04:05:18;;;;;;;4.30;1.30;;;-2.40;99.90;;;;;;7369637;19;20284;-82
2022/01/21 04:07:46;;;;;;;0.75;0.75;;;-2.40;99.90;;;;;;7392700;19;20360;-85
2022/01/21 04:10:12;;;;;;;1.35;1.20;;;-2.40;99.90;;;;;;7390568;19;20315;-79
2022/01/21 04:12:39;;;;;;;1.60;1.35;;;-2.40;99.90;;;;;;7385562;19;20403;-78
2022/01/21 04:15:05;;;;;;;1.30;1.20;;;-2.40;99.90;;;;;;7385402;19;20341;-78
2022/01/21 04:17:35;;;;;;;5.80;1.33;;;-2.40;99.90;;;;;;7389256;19;20321;-82
2022/01/21 04:20:01;;;;;;;0.90;0.90;;;-2.40;99.90;;;;;;7387574;19;20297;-80
2022/01/21 04:22:27;;;;;;;0.93;0.93;;;-2.40;99.90;;;;;;7387710;19;20305;-82
2022/01/21 04:24:54;;;;;;;1.90;1.33;;;-2.40;99.90;;;;;;7386075;19;20329;-81
2022/01/21 04:27:20;;;;;;;2.25;1.40;;;-2.40;99.90;;;;;;7384833;19;20321;-77
2022/01/21 04:29:46;;;;;;;1.58;1.20;;;-2.40;99.90;;;;;;7384698;19;20320;-80
2022/01/21 04:32:17;;;;;;;1.60;1.23;;;-2.40;99.90;;;;;;7384247;19;20341;-76
2022/01/21 04:34:44;;;;;;;1.37;1.27;;;-2.40;99.90;;;;;;7389632;19;20311;-81
2022/01/21 04:37:13;;;;;;;1.55;1.30;;;-2.40;99.90;;;;;;7387398;19;20697;-78
2022/01/21 04:39:58;;;;;;;1.20;1.15;;;-2.40;99.90;;;;;;7365049;19;20323;-77
2022/01/21 04:47:54;;;;;;;2.55;1.40;;;-2.50;99.90;;;;;;7287417;19;2004276;-79
2022/01/21 04:50:24;;;;;;;2.15;1.42;;;-2.50;99.90;;;;;;7387252;19;20356;-78
2022/01/21 04:52:53;;;;;;;1.67;1.40;;;-2.50;99.90;;;;;;7389286;19;20880;-81
2022/01/21 04:55:43;;;;;;;1.20;1.10;;;-2.50;99.90;;;;;;7387067;19;20308;-76
2022/01/21 04:58:09;;;;;;;4.25;1.20;;;-2.60;99.90;;;;;;7387345;19;20727;-81
2022/01/21 05:00:36;;;;;;;2.50;1.10;;;-2.40;99.90;;;;;;7384981;19;20313;-81
2022/01/21 05:03:04;;;;;;;1.15;1.08;;;-2.60;99.90;;;;;;7392758;19;20323;-76
2022/01/21 05:05:30;;;;;;;1.90;1.33;;;-2.50;99.90;;;;;;7368316;19;20349;-79
2022/01/21 05:08:04;;;;;;;1.30;1.20;;;-2.60;99.90;;;;;;7365258;19;20724;-79
2022/01/21 05:10:30;;;;;;;4.30;1.73;;;-2.60;99.90;;;;;;7283570;19;2004517;-77
2022/01/21 05:12:56;;;;;;;2.00;1.50;;;-2.60;99.90;;;;;;7384042;19;20360;-78
2022/01/21 05:15:30;;;;;;;1.98;1.20;;;-2.50;99.90;;;;;;7385628;19;20342;-76
2022/01/21 05:17:58;;;;;;;2.30;1.20;;;-2.50;99.90;;;;;;7383808;19;20333;-82
2022/01/21 05:20:40;;;;;;;4.53;2.00;;;-2.50;99.90;;;;;;7393882;19;20712;-76
2022/01/21 05:23:17;;;;;;;2.33;1.70;;;-2.50;99.90;;;;;;7384291;19;20372;-77
2022/01/21 05:25:43;;;;;;;2.83;1.45;;;-2.50;99.90;;;;;;7391962;19;20372;-79
2022/01/21 05:28:09;;;;;;;1.25;1.10;;;-2.50;99.90;;;;;;7381068;19;20419;-76
2022/01/21 05:30:55;;;;;;;1.45;1.00;;;-2.50;99.90;;;;;;7392636;19;20322;-79
2022/01/21 05:33:37;;;;;;;3.25;1.20;;;-2.50;99.90;;;;;;7285729;19;2004592;-77
2022/01/21 05:36:41;;;;;;;2.20;1.30;;;-2.60;99.90;;;;;;7290414;19;2004395;-77
2022/01/21 05:39:30;;;;;;;0.98;0.98;;;-2.50;99.90;;;;;;7290477;19;2005407;-78
2022/01/21 05:42:12;;;;;;;6.60;1.40;;;-2.60;99.90;;;;;;7391782;19;20368;-76
2022/01/21 05:48:00;;;;;;;1.17;1.10;;;-2.60;99.90;;;;;;7290490;19;2004697;-79
2022/01/21 05:50:45;;;;;;;1.83;1.30;;;-2.60;99.90;;;;;;7395508;19;20707;-76
2022/01/21 05:53:36;;;;;;;1.33;1.23;;;-2.60;99.90;;;;;;7286321;19;2004468;-81
2022/01/21 05:56:41;;;;;;;1.00;1.00;;;-2.70;99.90;;;;;;7186300;19;2004688;-81
2022/01/21 05:59:17;;;;;;;1.10;1.10;;;-2.70;99.90;;;;;;7392834;19;20351;-79
2022/01/21 06:01:43;;;;;;;2.10;1.10;;;-2.40;99.90;;;;;;7389287;19;20659;-78
2022/01/21 06:04:09;;;;;;;2.90;1.33;;;-2.70;99.90;;;;;;7388611;19;20348;-79
2022/01/21 06:06:34;;;;;;;1.45;1.35;;;-2.80;99.90;;;;;;7393481;19;21210;-78
2022/01/21 06:09:01;;;;;;;1.50;1.40;;;-2.90;99.90;;;;;;7393264;19;20301;-78
2022/01/21 06:11:27;;;;;;;4.40;2.00;;;-2.90;99.90;;;;;;7402218;19;20324;-77
2022/01/21 06:13:52;;;;;;;2.30;1.57;;;-3.00;99.90;;;;;;7401918;19;20363;-77
2022/01/21 06:16:18;;;;;;;1.80;1.70;;;-3.00;99.90;;;;;;7406556;19;20412;-79
2022/01/21 06:18:44;;;;;;;3.20;1.75;;;-3.10;99.90;;;;;;7411648;19;20360;-78
2022/01/21 06:21:10;;;;;;;2.72;1.70;;;-3.20;99.90;;;;;;7400985;19;20348;-77
2022/01/21 06:23:36;;;;;;;2.10;1.40;;;-3.20;99.90;;;;;;7402302;19;20314;-81
2022/01/21 06:26:01;;;;;;;1.58;1.20;;;-3.30;99.90;;;;;;7394977;19;20372;-80
2022/01/21 06:28:27;;;;;;;1.20;1.10;;;-3.30;99.90;;;;;;7406186;19;20356;-80
2022/01/21 06:30:53;;;;;;;1.33;1.20;;;-3.30;99.90;;;;;;7412630;19;20324;-82
2022/01/21 06:33:20;;;;;;;1.40;1.30;;;-3.30;99.90;;;;;;7412829;19;20313;-77
2022/01/21 06:35:47;;;;;;;0.90;0.90;;;-3.30;99.90;;;;;;7410782;19;21287;-78
2022/01/21 06:38:13;;;;;;;1.60;1.23;;;-3.30;99.90;;;;;;7407703;19;20299;-80
2022/01/21 06:40:39;;;;;;;1.30;1.10;;;-3.30;99.90;;;;;;7407513;19;20325;-81
2022/01/21 06:43:04;;;;;;;3.53;1.30;;;-3.20;99.90;;;;;;7404865;19;20959;-78
2022/01/21 06:45:30;;;;;;;1.40;1.30;;;-3.30;99.90;;;;;;7397624;19;20328;-79
2022/01/21 06:47:59;;;;;;;2.47;1.63;;;-3.30;99.90;;;;;;7403638;19;20353;-75
2022/01/21 06:50:25;;;;;;;2.40;1.10;;;-3.40;99.90;;;;;;7405193;19;20329;-75
2022/01/21 06:52:51;;;;;;;0.68;0.68;;;-3.50;99.90;;;;;;7402169;19;20313;-77
2022/01/21 06:55:17;;;;;;;1.50;1.38;;;-3.50;99.90;;;;;;7402335;19;20317;-78
2022/01/21 06:57:43;;;;;;;3.35;2.33;;;-3.30;99.90;;;;;;7407445;19;20746;-84
2022/01/21 07:00:11;;;;;;;1.40;1.30;;;-3.50;99.90;;;;;;7404428;19;21036;-77
2022/01/21 07:02:36;;;;;;;1.92;1.80;;;-3.50;99.90;;;;;;7404489;19;20380;-78
2022/01/21 07:05:04;;;;;;;1.48;1.38;;;-3.50;99.90;;;;;;7408546;19;20330;-80
2022/01/21 07:07:30;;;;;;;2.45;2.05;;;-3.40;99.90;;;;;;7396763;19;20329;-76
2022/01/21 07:09:56;;;;;;;1.55;1.45;;;-3.50;99.90;;;;;;7390907;19;20313;-78
2022/01/21 07:12:22;;;;;;;1.20;1.20;;;-3.50;99.90;;;;;;7390326;19;20420;-77
2022/01/21 07:14:48;;;;;;;1.58;1.27;;;-3.50;99.90;;;;;;7392100;19;20339;-76
2022/01/21 07:17:13;;;;;;;1.42;1.23;;;-3.50;99.90;;;;;;7400335;19;20694;-79
2022/01/21 07:19:39;;;;;;;2.30;1.30;;;-3.50;99.90;;;;;;7398207;19;20300;-78
2022/01/21 07:22:05;;;;;;;1.93;1.43;;;-3.50;99.90;;;;;;7403670;19;20312;-81
2022/01/21 07:24:31;;;;;;;1.55;1.45;;;-3.50;99.90;;;;;;7402756;19;20317;-80
2022/01/21 07:26:57;;;;;;;1.80;1.70;;;-3.50;99.90;;;;;;7399440;19;20335;-82
2022/01/21 07:29:23;;;;;;;3.23;1.50;;;-3.50;99.90;;;;;;7398792;19;20860;-75
2022/01/21 07:31:53;;;;;;;1.20;1.10;;;-3.50;99.90;;;;;;7401944;19;20316;-76
2022/01/21 07:34:19;;;;;;;1.02;0.95;;;-3.40;99.90;;;;;;7397497;19;20336;-77
2022/01/21 07:36:45;;;;;;;1.55;1.35;;;-3.30;99.90;;;;;;7406428;19;20341;-81
2022/01/21 07:39:11;;;;;;;2.90;1.77;;;-3.40;99.90;;;;;;7411124;19;20301;-79
2022/01/21 07:41:36;;;;;;;2.97;1.38;;;-3.40;99.90;;;;;;7411274;19;20910;-78
2022/01/21 07:44:02;;;;;;;1.80;1.50;;;-3.40;99.90;;;;;;7401770;19;20316;-82
2022/01/21 07:46:28;;;;;;;1.30;1.20;;;-3.30;99.90;;;;;;7409242;19;20621;-77
2022/01/21 07:48:54;;;;;;;1.25;1.10;;;-3.20;99.90;;;;;;7403781;19;20887;-77
2022/01/21 07:51:20;;;;;;;2.30;1.40;;;-3.30;99.90;;;;;;7406049;19;20311;-80
2022/01/21 07:53:46;;;;;;;3.23;2.03;;;-3.20;99.90;;;;;;7404534;19;20953;-79
2022/01/21 07:56:12;;;;;;;1.17;1.08;;;-3.20;99.90;;;;;;7403002;19;20340;-77
2022/01/21 07:58:37;;;;;;;2.03;1.20;;;-3.20;99.90;;;;;;7402776;19;20734;-79
2022/01/21 08:01:03;;;;;;;1.40;1.30;;;-3.20;99.90;;;;;;7402223;19;20316;-79
2022/01/21 08:03:29;;;;;;;1.17;1.10;;;-3.10;99.90;;;;;;7401343;19;20324;-79
2022/01/21 08:05:54;;;;;;;1.15;1.08;;;-3.00;99.90;;;;;;7398547;19;20316;-78
2022/01/21 08:08:20;;;;;;;1.73;1.40;;;-3.00;99.90;;;;;;7394140;19;20308;-79
2022/01/21 08:10:46;;;;;;;0.90;0.90;;;-2.90;99.90;;;;;;7402172;19;20304;-81
2022/01/21 08:13:12;;;;;;;1.00;1.00;;;-3.00;99.90;;;;;;7395756;19;20320;-80
2022/01/21 08:15:38;;;;;;;1.70;1.30;;;-2.60;99.90;;;;;;7388305;19;20329;-79
2022/01/21 08:18:04;;;;;;;1.70;1.20;;;-2.80;99.90;;;;;;7388727;19;20333;-77
2022/01/21 08:20:30;;;;;;;1.77;1.45;;;-2.80;99.90;;;;;;7382538;19;20749;-81
2022/01/21 08:22:56;;;;;;;2.15;1.30;;;-2.70;99.90;;;;;;7381991;19;20381;-80
2022/01/21 08:25:23;;;;;;;1.70;1.30;;;-2.70;99.90;;;;;;7382830;19;20326;-81
2022/01/21 08:27:49;;;;;;;1.73;1.38;;;-2.60;99.90;;;;;;7386402;19;20329;-80
2022/01/21 08:30:15;;;;;;;1.77;1.13;;;-2.50;99.90;;;;;;7385130;19;20332;-79
2022/01/21 08:32:41;;;;;;;2.15;1.38;;;-2.50;99.90;;;;;;7385713;19;20336;-79
2022/01/21 08:35:07;;;;;;;3.40;1.48;;;-2.40;99.90;;;;;;7380355;19;20693;-81
2022/01/21 08:37:33;;;;;;;4.63;1.40;;;-2.30;99.90;;;;;;7383729;19;20309;-79
2022/01/21 08:39:59;;;;;;;1.42;1.33;;;-2.30;99.90;;;;;;7384872;19;20344;-79
2022/01/21 08:42:24;;;;;;;2.57;1.67;;;-2.20;99.90;;;;;;7383671;19;20659;-77
2022/01/21 08:44:50;;;;;;;1.67;1.50;;;-2.20;99.90;;;;;;7383460;19;20381;-76
2022/01/21 08:47:16;;;;;;;1.40;1.30;;;-2.10;99.90;;;;;;7384048;19;20301;-79
2022/01/21 08:49:44;;;;;;;3.72;1.30;;;-2.10;99.90;;;;;;7382995;19;20407;-84
2022/01/21 08:52:18;;;;;;;6.00;1.73;;;-2.00;99.90;;;;;;7384955;19;20302;-78
2022/01/21 08:54:44;;;;;;;1.48;1.17;;;-1.90;99.90;;;;;;7384752;19;20305;-85
2022/01/21 08:57:09;;;;;;;2.90;1.53;;;-1.80;99.90;;;;;;7382203;19;20329;-80
2022/01/21 08:59:35;;;;;;;1.40;1.30;;;-1.60;99.90;;;;;;7382380;19;20304;-78
2022/01/21 09:02:01;;;;;;;1.30;1.15;;;-1.70;99.90;;;;;;7385151;19;20437;-81
2022/01/21 09:04:27;;;;;;;2.20;1.60;;;-1.70;99.90;;;;;;7382993;19;20336;-85
2022/01/21 09:06:53;;;;;;;1.50;1.40;;;-1.60;99.90;;;;;;7381830;19;20327;-76
2022/01/21 09:09:19;;;;;;;4.70;1.50;;;-1.50;99.90;;;;;;7381931;19;20308;-76
2022/01/21 09:11:45;;;;;;;2.55;1.63;;;-1.50;99.90;;;;;;7384822;19;20321;-77
2022/01/21 09:14:10;;;;;;;3.40;1.40;;;-1.50;99.90;;;;;;7383007;19;20296;-75
2022/01/21 09:16:36;;;;;;;2.08;1.60;;;-1.40;99.90;;;;;;7381470;19;20352;-78
2022/01/21 09:19:03;;;;;;;2.33;1.38;;;-1.20;99.90;;;;;;7380351;19;20325;-82
2022/01/21 09:21:30;;;;;;;1.33;1.20;;;-1.30;99.90;;;;;;7385015;19;20320;-77
2022/01/21 09:23:56;;;;;;;1.30;1.10;;;-1.30;99.90;;;;;;7381636;19;20345;-80
2022/01/21 09:26:23;;;;;;;4.28;1.77;;;-1.20;99.90;;;;;;7383903;19;20671;-78
2022/01/21 09:28:49;;;;;;;2.50;2.17;;;-1.20;99.90;;;;;;7383618;19;20356;-77
2022/01/21 09:31:15;;;;;;;2.50;1.83;;;-1.10;99.90;;;;;;7384976;19;20779;-80
2022/01/21 09:33:41;;;;;;;2.58;1.63;;;-1.00;99.90;;;;;;7382422;19;20320;-77
2022/01/21 09:36:08;;;;;;;2.05;1.50;;;-1.00;99.90;;;;;;7367774;19;20668;-77
2022/01/21 09:38:33;;;;;;;2.83;1.73;;;-0.90;99.90;;;;;;7379726;19;20347;-77
2022/01/21 09:40:59;;;;;;;2.93;1.50;;;-0.80;99.90;;;;;;7383404;19;20296;-77
2022/01/21 09:43:25;;;;;;;4.63;1.92;;;-0.80;99.90;;;;;;7383491;19;20308;-77
2022/01/21 09:45:53;;;;;;;2.25;1.60;;;-0.70;99.90;;;;;;7391736;19;20390;-77
2022/01/21 09:48:29;;;;;;;5.40;1.90;;;-0.60;99.90;;;;;;7389435;19;20304;-77
2022/01/21 09:50:56;;;;;;;4.60;1.75;;;-0.60;99.90;;;;;;7287945;19;2005320;-77
2022/01/21 09:53:32;;;;;;;5.40;1.52;;;-0.60;99.90;;;;;;7390324;19;20337;-78
2022/01/21 09:56:04;;;;;;;2.05;1.40;;;-0.50;99.90;;;;;;7392360;19;20324;-79
2022/01/21 09:58:30;;;;;;;1.67;1.30;;;-0.40;99.90;;;;;;7387826;19;20328;-77
2022/01/21 10:00:56;;;;;;;5.17;1.80;;;-0.40;99.90;;;;;;7389634;19;21153;-77
2022/01/21 10:03:22;;;;;;;3.25;1.50;;;-0.30;99.90;;;;;;7387471;19;20359;-77
2022/01/21 10:05:48;;;;;;;2.05;1.52;;;-0.30;99.90;;;;;;7388055;19;20340;-77
2022/01/21 10:08:14;;;;;;;5.22;3.42;;;-0.10;99.90;;;;;;7387266;19;20311;-77
2022/01/21 10:10:43;;;;;;;5.13;2.33;;;-0.10;99.90;;;;;;7383341;19;20337;-77
2022/01/21 10:13:09;;;;;;;6.38;1.85;;;-0.10;99.90;;;;;;7388239;19;20312;-77
2022/01/21 10:15:37;;;;;;;1.73;1.27;;;-0.10;99.90;;;;;;7392301;19;20735;-76
2022/01/21 10:18:08;;;;;;;6.20;1.55;;;-0.10;99.90;;;;;;7389656;19;21058;-76
2022/01/21 10:20:33;;;;;;;2.10;1.45;;;0.00;99.90;;;;;;7386516;19;20515;-76
2022/01/21 10:23:03;;;;;;;1.67;1.58;;;0.00;99.90;;;;;;7390279;19;20408;-76
2022/01/21 10:25:29;;;;;;;2.88;1.73;;;0.10;99.90;;;;;;7385127;19;20297;-76
2022/01/21 10:28:11;;;;;;;5.27;2.00;;;0.20;99.90;;;;;;7385968;19;20359;-77
2022/01/21 10:30:38;;;;;;;3.10;1.75;;;0.20;99.90;;;;;;7386494;19;20335;-77
2022/01/21 10:33:23;;;;;;;1.92;1.65;;;0.30;99.90;;;;;;7383325;19;20507;-77
2022/01/21 10:35:51;;;;;;;1.60;1.48;;;0.30;99.90;;;;;;7385349;19;20316;-74
2022/01/21 10:38:28;;;;;;;3.60;1.80;;;0.40;99.90;;;;;;7383949;19;20309;-76
2022/01/21 10:41:05;;;;;;;3.58;1.95;;;0.40;99.90;;;;;;7384885;19;21197;-77
2022/01/21 10:43:30;;;;;;;1.98;1.60;;;0.50;99.90;;;;;;7383090;19;20320;-76
2022/01/21 10:45:58;;;;;;;2.13;1.60;;;0.40;99.90;;;;;;7384679;19;20361;-77
2022/01/21 10:48:25;;;;;;;4.32;2.00;;;0.60;99.90;;;;;;7385307;19;20328;-76
2022/01/21 10:51:35;;;;;;;2.78;1.63;;;0.60;99.90;;;;;;7384710;19;20392;-77
2022/01/21 10:54:22;;;;;;;3.75;1.60;;;0.60;99.90;;;;;;7177686;19;2004599;-77
2022/01/21 10:57:14;;;;;;;2.40;1.52;;;0.70;99.90;;;;;;7385996;19;20401;-77
2022/01/21 11:00:15;;;;;;;3.97;1.67;;;0.80;99.90;;;;;;7383828;19;20350;-77
2022/01/21 11:02:49;;;;;;;4.03;1.83;;;0.80;99.90;;;;;;7281327;19;2020105;-77
2022/01/21 11:05:23;;;;;;;2.97;1.85;;;0.80;99.90;;;;;;7385385;19;20320;-76
2022/01/21 11:08:03;;;;;;;1.95;1.58;;;0.90;99.90;;;;;;7384909;19;20345;-77
2022/01/21 11:10:31;;;;;;;1.88;1.63;;;0.90;99.90;;;;;;7383789;19;21279;-78
2022/01/21 11:12:58;;;;;;;1.42;1.30;;;1.10;99.90;;;;;;7384757;19;20320;-75
2022/01/21 11:15:23;;;;;;;4.10;1.85;;;1.10;99.90;;;;;;7386163;19;20297;-77
2022/01/21 11:18:02;;;;;;;2.40;1.80;;;1.10;99.90;;;;;;7386309;19;20337;-76
2022/01/21 11:20:37;;;;;;;3.75;1.80;;;1.10;99.90;;;;;;7382572;19;20317;-76
2022/01/21 11:23:03;;;;;;;3.97;1.60;;;1.20;99.90;;;;;;7385803;19;20404;-76
2022/01/21 11:25:46;;;;;;;1.77;1.63;;;1.20;99.90;;;;;;7385093;19;20414;-76
2022/01/21 11:28:13;;;;;;;2.90;1.83;;;1.30;99.90;;;;;;7284102;19;2004568;-76
2022/01/21 11:30:39;;;;;;;3.60;1.70;;;1.40;99.90;;;;;;7385008;19;20319;-80
2022/01/21 11:33:05;;;;;;;5.15;1.92;;;1.40;99.90;;;;;;7381972;19;20344;-75
2022/01/21 11:35:31;;;;;;;2.83;1.70;;;1.40;99.90;;;;;;7383543;19;20332;-76
2022/01/21 11:37:57;;;;;;;2.80;1.70;;;1.50;99.90;;;;;;7385687;19;20351;-76
2022/01/21 11:40:26;;;;;;;2.90;1.63;;;1.50;99.90;;;;;;7372162;19;23251;-75
2022/01/21 11:42:52;;;;;;;2.50;1.60;;;1.70;99.90;;;;;;7382947;19;20346;-75
2022/01/21 11:45:31;;;;;;;6.93;1.83;;;1.80;99.90;;;;;;7380832;19;20725;-75
2022/01/21 11:48:50;;;;;;;3.05;1.65;;;1.80;99.90;;;;;;7381908;19;20312;-75
2022/01/21 11:50:56;;;;;;;1.85;1.45;;;1.80;99.90;;;;;;7282485;19;2006714;-75
2022/01/21 11:53:45;;;;;;;1.97;1.40;;;1.80;99.90;;;;;;7380454;19;20313;-75
2022/01/21 11:56:55;;;;;;;3.10;1.65;;;1.70;99.90;;;;;;7388189;19;20881;-75
2022/01/21 11:59:31;;;;;;;4.35;1.70;;;1.80;99.90;;;;;;7279439;19;2008672;-77
2022/01/21 12:01:58;;;;;;;3.63;1.60;;;1.90;99.90;;;;;;7384073;19;20308;-75
2022/01/21 12:04:29;;;;;;;3.97;1.70;;;2.00;99.90;;;;;;7378325;19;20308;-75
2022/01/21 12:06:55;;;;;;;1.77;1.60;;;2.00;99.90;;;;;;7379119;19;20304;-75
2022/01/21 12:09:38;;;;;;;6.70;1.70;;;2.10;99.90;;;;;;7382835;19;20423;-75
2022/01/21 12:12:04;;;;;;;2.53;1.77;;;2.20;99.90;;;;;;7383160;19;20888;-75
2022/01/21 12:14:37;;;;;;;2.33;1.63;;;2.30;99.90;;;;;;7376484;19;20325;-75
2022/01/21 12:17:18;;;;;;;2.00;1.45;;;2.20;99.90;;;;;;7380651;19;20351;-75
2022/01/21 12:19:44;;;;;;;3.45;1.38;;;2.20;99.90;;;;;;7378783;19;20392;-75
2022/01/21 12:22:12;;;;;;;1.70;1.55;;;2.30;99.90;;;;;;7382842;19;21198;-75
2022/01/21 12:24:48;;;;;;;4.33;1.57;;;2.20;99.90;;;;;;7381255;19;20472;-75
2022/01/21 12:27:14;;;;;;;2.70;1.50;;;2.40;99.90;;;;;;7381296;19;20704;-75
2022/01/21 12:29:40;;;;;;;4.60;2.40;;;2.30;99.90;;;;;;7378435;19;20844;-74
2022/01/21 12:32:18;;;;;;;2.97;1.88;;;2.40;99.90;;;;;;7384472;19;20417;-74
2022/01/21 12:35:19;;;;;;;4.47;1.70;;;2.30;99.90;;;;;;7175525;19;2004635;-74
2022/01/21 12:41:04;;;;;;;2.80;2.00;;;2.30;99.90;;;;;;7278441;19;2006566;-74
2022/01/21 12:43:46;;;;;;;5.03;2.13;;;2.20;99.90;;;;;;7379424;19;21421;-75
2022/01/21 12:46:34;;;;;;;1.85;1.38;;;2.20;99.90;;;;;;7380144;19;20315;-75
2022/01/21 12:49:01;;;;;;;2.53;2.00;;;2.20;99.90;;;;;;7274249;19;2007512;-75
2022/01/21 12:52:08;;;;;;;2.57;1.87;;;2.20;99.90;;;;;;7378647;19;20312;-75
2022/01/21 12:57:26;;;;;;;3.13;1.92;;;2.00;99.90;;;;;;7278288;19;2004403;-76
2022/01/21 12:59:56;;;;;;;2.63;1.67;;;2.00;99.90;;;;;;7375483;19;20328;-76
2022/01/21 13:02:23;;;;;;;2.60;1.70;;;2.10;99.90;;;;;;7377362;19;20349;-75
2022/01/21 13:04:58;;;;;;;2.38;1.63;;;2.00;99.90;;;;;;7342491;19;20331;-77
2022/01/21 13:07:24;;;;;;;3.97;1.80;;;2.00;99.90;;;;;;7377153;19;20316;-76
2022/01/21 13:10:02;;;;;;;6.10;1.73;;;2.00;99.90;;;;;;7378394;19;20574;-76
2022/01/21 13:12:47;;;;;;;2.90;1.80;;;2.10;99.90;;;;;;7381022;19;20329;-75
2022/01/21 13:15:13;;;;;;;2.35;1.73;;;2.10;99.90;;;;;;7273453;19;2006730;-75
2022/01/21 13:17:39;;;;;;;3.10;1.98;;;2.30;99.90;;;;;;7377815;19;20998;-76
2022/01/21 13:20:05;;;;;;;2.45;1.80;;;2.20;99.90;;;;;;7383640;19;20337;-77
2022/01/21 13:22:35;;;;;;;1.40;1.30;;;2.30;99.90;;;;;;7384522;19;20388;-76
2022/01/21 13:25:06;;;;;;;1.77;1.65;;;2.30;99.90;;;;;;7385510;19;20357;-75
2022/01/21 13:27:51;;;;;;;4.10;1.95;;;2.30;99.90;;;;;;7383260;19;20872;-75
2022/01/21 13:30:18;;;;;;;2.50;1.38;;;2.40;99.90;;;;;;7383554;19;20387;-76
2022/01/21 13:32:44;;;;;;;1.90;1.30;;;2.40;99.90;;;;;;7385509;19;20332;-76
2022/01/21 13:35:13;;;;;;;1.20;1.10;;;2.30;99.90;;;;;;7389745;19;20328;-76
2022/01/21 13:37:40;;;;;;;1.35;1.25;;;2.40;99.90;;;;;;7388693;19;20329;-77
2022/01/21 13:40:08;;;;;;;1.83;1.30;;;2.50;99.90;;;;;;7384122;19;20328;-77
2022/01/21 13:42:34;;;;;;;2.00;1.50;;;2.50;99.90;;;;;;7382694;19;20320;-77
2022/01/21 13:45:05;;;;;;;1.40;1.30;;;2.70;99.90;;;;;;7383900;19;20304;-76
2022/01/21 13:47:40;;;;;;;1.83;1.43;;;2.60;99.90;;;;;;7205035;19;3493934;-80
2022/01/21 13:50:17;;;;;;;2.88;1.30;;;2.40;99.90;;;;;;7384035;19;20341;-76
2022/01/21 13:52:47;;;;;;;1.70;1.10;;;2.40;99.90;;;;;;7384205;19;20355;-76
2022/01/21 13:55:34;;;;;;;1.30;1.20;;;2.30;99.90;;;;;;7383237;19;20344;-76
2022/01/21 13:58:03;;;;;;;1.23;1.13;;;2.20;99.90;;;;;;7385687;19;20351;-76
2022/01/21 14:00:33;;;;;;;1.80;1.38;;;2.30;99.90;;;;;;7384557;19;20324;-77
2022/01/21 14:03:02;;;;;;;1.63;1.20;;;2.40;99.90;;;;;;7384483;19;20379;-76
2022/01/21 14:06:00;;;;;;;2.07;0.90;;;2.40;99.90;;;;;;7383331;19;20419;-76
2022/01/21 14:08:30;;;;;;;1.50;1.40;;;2.50;99.90;;;;;;7279982;19;2004817;-76